createdAt,value
2019-04-14T00:02:49.132Z,4.90
2019-04-14T00:06:52.604Z,4.90
2019-04-14T00:10:57.264Z,5.00
2019-04-14T00:15:00.379Z,4.90
2019-04-14T00:19:04.409Z,4.80
2019-04-14T00:23:08.681Z,4.60
2019-04-14T00:27:12.819Z,4.50
2019-04-14T00:31:15.990Z,4.60
2019-04-14T00:35:29.930Z,4.60
2019-04-14T00:39:37.943Z,4.60
2019-04-14T00:43:46.097Z,4.60
2019-04-14T00:48:03.465Z,4.60
2019-04-14T00:52:02.068Z,4.50
2019-04-14T00:56:06.192Z,4.40
2019-04-14T01:00:10.372Z,4.40
2019-04-14T01:04:14.377Z,4.20
2019-04-14T01:08:18.478Z,4.30
2019-04-14T01:12:21.850Z,4.30
2019-04-14T01:16:25.553Z,4.30
2019-04-14T01:20:29.657Z,4.10
2019-04-14T01:24:33.645Z,4.10
2019-04-14T01:28:37.558Z,4.10
2019-04-14T01:32:41.528Z,4.30
2019-04-14T01:36:45.315Z,4.20
2019-04-14T01:40:48.842Z,4.10
2019-04-14T01:44:52.503Z,4.30
2019-04-14T01:48:56.399Z,4.20
2019-04-14T01:53:07.598Z,4.30
2019-04-14T01:57:28.482Z,4.30
2019-04-14T02:01:36.789Z,4.40
2019-04-14T02:05:40.700Z,4.30
2019-04-14T02:09:44.678Z,4.30
2019-04-14T02:13:48.579Z,4.20
2019-04-14T02:17:52.419Z,4.30
2019-04-14T02:21:56.330Z,4.30
2019-04-14T02:26:00.101Z,4.20
2019-04-14T02:30:08.859Z,4.20
2019-04-14T02:34:39.182Z,4.30
2019-04-14T02:38:55.289Z,4.30
2019-04-14T02:42:46.690Z,4.30
2019-04-14T02:51:01.855Z,4.40
2019-04-14T02:54:59.446Z,4.30
2019-04-14T02:59:03.707Z,4.50
2019-04-14T03:03:16.931Z,4.60
2019-04-14T03:07:21.962Z,4.50
2019-04-14T03:11:21.240Z,4.70
2019-04-14T03:15:26.670Z,4.80
2019-04-14T03:19:59.146Z,4.60
2019-04-14T03:24:07.130Z,4.60
2019-04-14T03:28:17.494Z,4.60
2019-04-14T03:32:52.687Z,4.50
2019-04-14T03:44:43.592Z,4.60
2019-04-14T03:56:46.639Z,4.40
2019-04-14T04:00:51.336Z,4.40
2019-04-14T04:04:55.495Z,4.30
2019-04-14T04:08:59.653Z,4.40
2019-04-14T04:13:04.063Z,4.40
2019-04-14T04:17:14.657Z,4.40
2019-04-14T04:21:29.133Z,4.40
2019-04-14T04:25:42.971Z,4.30
2019-04-14T04:29:54.804Z,4.40
2019-04-14T04:34:14.646Z,4.40
2019-04-14T04:38:20.173Z,4.40
2019-04-14T04:42:24.274Z,4.30
2019-04-14T04:46:28.684Z,4.40
2019-04-14T04:51:24.804Z,4.30
2019-04-14T04:55:28.629Z,4.30
2019-04-14T04:59:32.162Z,4.40
2019-04-14T05:03:36.388Z,4.40
2019-04-14T05:07:40.503Z,4.40
2019-04-14T05:12:02.317Z,4.40
2019-04-14T05:16:06.329Z,4.40
2019-04-14T05:20:09.687Z,4.50
2019-04-14T05:24:13.609Z,4.60
2019-04-14T05:28:17.787Z,4.90
2019-04-14T05:32:21.608Z,5.10
2019-04-14T05:36:25.944Z,5.10
2019-04-14T05:40:29.992Z,5.00
2019-04-14T05:44:34.049Z,5.10
2019-04-14T05:48:38.086Z,5.40
2019-04-14T05:52:42.356Z,5.50
2019-04-14T05:56:45.747Z,5.70
2019-04-14T06:00:50.535Z,5.70
2019-04-14T06:04:55.050Z,5.80
2019-04-14T06:08:58.124Z,5.90
2019-04-14T06:13:01.140Z,6.30
2019-04-14T06:17:04.144Z,6.40
2019-04-14T06:21:07.168Z,6.50
2019-04-14T06:25:10.564Z,6.50
2019-04-14T06:29:13.583Z,6.90
2019-04-14T06:33:21.015Z,6.90
2019-04-14T06:37:28.988Z,6.60
2019-04-14T06:41:32.018Z,6.80
2019-04-14T06:45:35.075Z,6.70
2019-04-14T06:49:48.390Z,6.70
2019-04-14T06:53:44.052Z,7.10
2019-04-14T06:57:47.057Z,7.20
2019-04-14T07:01:50.775Z,7.30
2019-04-14T07:05:53.812Z,7.60
2019-04-14T07:09:56.828Z,7.80
2019-04-14T07:13:59.901Z,7.80
2019-04-14T07:18:03.013Z,7.80
2019-04-14T07:22:06.105Z,7.80
2019-04-14T07:26:09.120Z,7.60
2019-04-14T07:30:26.283Z,7.60
2019-04-14T07:34:31.208Z,7.50
2019-04-14T07:38:39.039Z,7.40
2019-04-14T07:42:47.096Z,7.50
2019-04-14T07:46:57.793Z,7.60
2019-04-14T07:51:02.695Z,7.90
2019-04-14T07:55:08.692Z,8.30
2019-04-14T07:59:19.204Z,8.90
2019-04-14T08:03:30.246Z,9.60
2019-04-14T08:07:33.408Z,10.70
2019-04-14T08:11:36.479Z,11.40
2019-04-14T08:15:39.576Z,12.30
2019-04-14T08:19:42.584Z,12.50
2019-04-14T08:23:45.600Z,12.20
2019-04-14T08:27:48.649Z,12.90
2019-04-14T08:31:51.671Z,13.50
2019-04-14T08:35:54.663Z,13.30
2019-04-14T08:39:57.863Z,12.90
2019-04-14T08:44:17.639Z,13.40
2019-04-14T08:48:22.565Z,13.40
2019-04-14T08:52:27.497Z,13.70
2019-04-14T08:56:33.155Z,12.90
2019-04-14T09:00:40.567Z,13.10
2019-04-14T09:04:51.715Z,13.60
2019-04-14T09:08:56.689Z,13.90
2019-04-14T09:12:59.806Z,14.90
2019-04-14T09:17:03.104Z,15.60
2019-04-14T09:21:06.110Z,16.10
2019-04-14T09:25:09.129Z,16.30
2019-04-14T09:29:12.227Z,16.00
2019-04-14T09:33:15.242Z,15.90
2019-04-14T09:37:18.264Z,15.60
2019-04-14T09:41:21.342Z,14.70
2019-04-14T09:45:24.343Z,14.60
2019-04-14T09:49:27.363Z,15.50
2019-04-14T09:53:30.390Z,16.60
2019-04-14T09:57:34.504Z,15.60
2019-04-14T10:01:37.608Z,16.50
2019-04-14T10:05:40.611Z,16.50
2019-04-14T10:09:43.736Z,16.50
2019-04-14T10:13:46.863Z,16.70
2019-04-14T10:17:49.900Z,17.70
2019-04-14T10:21:52.934Z,16.40
2019-04-14T10:25:55.949Z,16.90
2019-04-14T10:29:59.038Z,17.10
2019-04-14T10:34:02.087Z,16.50
2019-04-14T10:38:05.091Z,17.20
2019-04-14T10:42:08.117Z,17.00
2019-04-14T10:46:11.121Z,17.70
2019-04-14T10:50:14.152Z,18.50
2019-04-14T10:54:17.172Z,19.00
2019-04-14T10:58:20.295Z,17.90
2019-04-14T11:02:23.300Z,16.90
2019-04-14T11:06:34.051Z,16.80
2019-04-14T11:10:37.078Z,17.50
2019-04-14T11:14:40.134Z,17.40
2019-04-14T11:18:43.188Z,17.30
2019-04-14T11:22:46.221Z,16.90
2019-04-14T11:26:49.239Z,17.20
2019-04-14T11:30:52.473Z,17.40
2019-04-14T11:35:00.248Z,17.90
2019-04-14T11:39:06.257Z,16.80
2019-04-14T11:43:09.363Z,16.50
2019-04-14T11:47:12.663Z,16.80
2019-04-14T11:51:15.676Z,17.30
2019-04-14T11:55:18.680Z,17.00
2019-04-14T11:59:24.329Z,16.40
2019-04-14T12:03:34.826Z,15.60
2019-04-14T12:07:39.758Z,15.70
2019-04-14T12:11:42.857Z,16.10
2019-04-14T12:15:45.957Z,15.80
2019-04-14T12:19:48.966Z,14.70
2019-04-14T12:23:51.961Z,14.60
2019-04-14T12:27:55.780Z,15.40
2019-04-14T12:31:59.654Z,15.80
2019-04-14T12:36:09.492Z,15.90
2019-04-14T12:40:12.689Z,14.70
2019-04-14T12:44:17.633Z,14.30
2019-04-14T12:48:22.542Z,14.70
2019-04-14T12:52:27.453Z,14.50
2019-04-14T12:56:30.464Z,14.90
2019-04-14T13:00:36.932Z,14.30
2019-04-14T13:04:39.954Z,14.70
2019-04-14T13:08:42.966Z,14.80
2019-04-14T13:12:46.049Z,15.00
2019-04-14T13:16:49.128Z,15.40
2019-04-14T13:20:52.228Z,15.20
2019-04-14T13:24:55.232Z,14.30
2019-04-14T13:28:58.364Z,14.20
2019-04-14T13:33:01.394Z,14.50
2019-04-14T13:37:04.401Z,14.60
2019-04-14T13:41:07.427Z,14.10
2019-04-14T13:45:10.650Z,14.20
2019-04-14T13:49:13.748Z,14.80
2019-04-14T13:53:16.754Z,14.30
2019-04-14T13:57:19.764Z,14.10
2019-04-14T14:01:23.335Z,14.10
2019-04-14T14:05:26.440Z,14.00
2019-04-14T14:09:29.575Z,13.70
2019-04-14T14:13:37.824Z,13.60
2019-04-14T14:17:49.060Z,13.20
2019-04-14T14:21:54.074Z,13.40
2019-04-14T14:25:59.087Z,13.90
2019-04-14T14:30:02.628Z,13.50
2019-04-14T14:34:05.641Z,13.50
2019-04-14T14:38:08.768Z,13.60
2019-04-14T14:42:11.775Z,13.60
2019-04-14T14:46:28.605Z,13.40
2019-04-14T14:50:36.377Z,13.30
2019-04-14T14:54:39.499Z,12.80
2019-04-14T14:58:45.243Z,12.60
2019-04-14T15:02:48.976Z,12.30
2019-04-14T15:06:52.071Z,12.10
2019-04-14T15:10:55.111Z,12.50
2019-04-14T15:14:58.193Z,12.30
2019-04-14T15:19:01.296Z,12.20
2019-04-14T15:23:04.475Z,12.60
2019-04-14T15:27:07.478Z,12.10
2019-04-14T15:31:10.500Z,11.80
2019-04-14T15:35:13.663Z,12.00
2019-04-14T15:39:16.665Z,12.00
2019-04-14T15:43:19.697Z,11.60
2019-04-14T15:47:22.707Z,11.50
2019-04-14T15:51:25.865Z,11.40
2019-04-14T15:55:28.881Z,10.90
2019-04-14T15:59:50.331Z,10.70
2019-04-14T16:03:55.740Z,10.40
2019-04-14T16:08:00.659Z,10.10
2019-04-14T16:12:17.378Z,9.90
2019-04-14T16:16:38.629Z,9.70
2019-04-14T16:20:44.393Z,9.90
2019-04-14T16:24:47.499Z,9.70
2019-04-14T16:28:52.409Z,9.50
2019-04-14T16:33:06.318Z,9.50
2019-04-14T16:37:09.389Z,9.40
2019-04-14T16:41:12.401Z,9.20
2019-04-14T16:45:16.417Z,9.00
2019-04-14T16:49:19.435Z,9.10
2019-04-14T16:53:24.357Z,9.30
2019-04-14T16:57:46.806Z,9.20
2019-04-14T17:01:49.898Z,9.50
2019-04-14T17:05:53.378Z,9.30
2019-04-14T17:09:56.401Z,9.00
2019-04-14T17:14:10.408Z,8.80
2019-04-14T17:18:15.325Z,8.70
2019-04-14T17:22:38.538Z,8.70
2019-04-14T17:26:45.993Z,8.60
2019-04-14T17:30:57.085Z,8.70
2019-04-14T17:35:07.027Z,8.60
2019-04-14T17:39:17.679Z,8.50
2019-04-14T17:43:31.276Z,8.70
2019-04-14T17:47:39.085Z,8.50
2019-04-14T17:51:49.880Z,8.60
2019-04-14T17:55:54.795Z,8.50
2019-04-14T17:59:59.695Z,8.50
2019-04-14T18:04:04.846Z,8.50
2019-04-14T18:08:12.889Z,8.40
2019-04-14T18:12:33.023Z,8.30
2019-04-14T18:16:54.337Z,8.30
2019-04-14T18:20:59.339Z,8.30
2019-04-14T18:25:04.779Z,8.20
2019-04-14T18:29:26.376Z,8.10
2019-04-14T18:33:31.372Z,8.00
2019-04-14T18:37:44.941Z,8.10
2019-04-14T18:41:55.660Z,8.00
2019-04-14T18:46:00.636Z,8.10
2019-04-14T18:50:14.755Z,7.90
2019-04-14T18:54:19.864Z,8.00
2019-04-14T18:58:42.996Z,8.00
2019-04-14T19:02:46.252Z,8.00
2019-04-14T19:06:49.362Z,7.90
2019-04-14T19:10:55.208Z,7.80
2019-04-14T19:15:03.128Z,7.60
2019-04-14T19:19:07.943Z,7.50
2019-04-14T19:23:10.973Z,7.50
2019-04-14T19:27:14.084Z,7.50
2019-04-14T19:31:17.176Z,7.40
2019-04-14T19:35:20.317Z,7.40
2019-04-14T19:39:23.376Z,7.20
2019-04-14T19:43:26.478Z,7.30
2019-04-14T19:47:29.606Z,7.30
2019-04-14T19:51:32.843Z,7.30
2019-04-14T19:55:37.345Z,7.10
2019-04-14T19:59:40.480Z,7.10
2019-04-14T20:03:43.507Z,6.90
2019-04-14T20:07:46.541Z,7.00
2019-04-14T20:11:50.654Z,7.00
2019-04-14T20:16:12.331Z,7.00
2019-04-14T20:20:26.108Z,7.10
2019-04-14T20:24:47.695Z,7.20
2019-04-14T20:29:01.481Z,7.40
2019-04-14T20:33:04.939Z,7.50
2019-04-14T20:37:08.442Z,7.40
2019-04-14T20:41:11.635Z,7.30
2019-04-14T20:45:15.046Z,7.30
2019-04-14T20:49:18.079Z,7.30
2019-04-14T20:53:21.143Z,7.30
2019-04-14T20:57:24.233Z,7.40
2019-04-14T21:01:29.260Z,7.50
2019-04-14T21:05:36.723Z,7.40
2019-04-14T21:09:56.618Z,7.40
2019-04-14T21:14:05.567Z,7.50
2019-04-14T21:18:10.560Z,7.60
2019-04-14T21:22:15.492Z,7.50
2019-04-14T21:26:29.033Z,7.50
2019-04-14T21:30:39.850Z,7.60
2019-04-14T21:35:01.439Z,7.70
2019-04-14T21:39:10.560Z,7.70
2019-04-14T21:43:13.870Z,7.60
2019-04-14T21:47:16.989Z,7.70
2019-04-14T21:51:21.937Z,7.70
2019-04-14T21:55:25.040Z,7.60
2019-04-14T21:59:30.977Z,7.50
2019-04-14T22:03:35.980Z,7.50
2019-04-14T22:07:57.389Z,7.60
2019-04-14T22:16:04.103Z,7.40
2019-04-14T22:20:07.296Z,7.40
2019-04-14T22:24:10.441Z,7.50
2019-04-14T22:28:13.513Z,7.40
2019-04-14T22:32:16.630Z,7.50
2019-04-14T22:36:19.822Z,7.40
2019-04-14T22:40:22.917Z,7.60
2019-04-14T22:44:25.942Z,7.50
2019-04-14T22:48:28.973Z,7.40
2019-04-14T22:52:32.035Z,7.10
2019-04-14T22:56:39.556Z,7.10
2019-04-14T23:00:51.065Z,7.10
2019-04-14T23:05:13.600Z,7.00
2019-04-14T23:09:18.505Z,6.80
2019-04-14T23:13:26.432Z,6.60
2019-04-14T23:17:37.488Z,6.70
2019-04-14T23:21:45.422Z,6.70
2019-04-14T23:25:48.452Z,6.70
2019-04-14T23:29:51.432Z,6.60
2019-04-14T23:33:54.426Z,6.50
2019-04-14T23:37:57.452Z,6.50
2019-04-14T23:42:00.505Z,6.60
2019-04-14T23:46:03.793Z,6.60
2019-04-14T23:50:08.113Z,6.50
2019-04-14T23:54:11.104Z,6.40
2019-04-14T23:58:14.101Z,6.40
